<?xml version="1.0" encoding="UTF-8" standalone="no" ?>
<gpx xmlns="http://www.topografix.com/GPX/1/1" xmlns:xsi="http://www.w3.org/2001/XMLSchema-instance" xsi:schemaLocation="http://www.topografix.com/GPX/1/1 http://www.topografix.com/GPX/1/1/gpx.xsd" version="1.1" creator="VisuGPX - https://www.visugpx.com">
  <metadata>
    <name>V3C-Bonsecours-25km-2023</name>
  </metadata>
  <trk>
    <name><![CDATA[Bonsecours 25km -2023-14836741]]></name>
    <trkseg>
      <trkpt lat="50.50259" lon="3.58877">
        <ele>43</ele>
        <time>2023-05-17T23:05:23Z</time>
      </trkpt>
      <trkpt lat="50.5022" lon="3.58878">
        <ele>42</ele>
        <time>2023-05-17T23:05:32Z</time>
      </trkpt>
      <trkpt lat="50.50212" lon="3.58883">
        <ele>42</ele>
        <time>2023-05-17T23:05:34Z</time>
      </trkpt>
      <trkpt lat="50.50205" lon="3.58893">
        <ele>42</ele>
        <time>2023-05-17T23:05:36Z</time>
      </trkpt>
      <trkpt lat="50.50201" lon="3.58906">
        <ele>42</ele>
        <time>2023-05-17T23:05:38Z</time>
      </trkpt>
      <trkpt lat="50.5019" lon="3.58915">
        <ele>42</ele>
        <time>2023-05-17T23:05:41Z</time>
      </trkpt>
      <trkpt lat="50.50174" lon="3.58919">
        <ele>42</ele>
        <time>2023-05-17T23:05:45Z</time>
      </trkpt>
      <trkpt lat="50.50095" lon="3.58921">
        <ele>41</ele>
        <time>2023-05-17T23:06:04Z</time>
      </trkpt>
      <trkpt lat="50.50042" lon="3.58918">
        <ele>41</ele>
        <time>2023-05-17T23:06:16Z</time>
      </trkpt>
      <trkpt lat="50.49986" lon="3.58918">
        <ele>41</ele>
        <time>2023-05-17T23:06:29Z</time>
      </trkpt>
      <trkpt lat="50.49942" lon="3.58924">
        <ele>40</ele>
        <time>2023-05-17T23:06:39Z</time>
      </trkpt>
      <trkpt lat="50.49923" lon="3.58931">
        <ele>40</ele>
        <time>2023-05-17T23:06:44Z</time>
      </trkpt>
      <trkpt lat="50.49736" lon="3.58993">
        <ele>39</ele>
        <time>2023-05-17T23:07:29Z</time>
      </trkpt>
      <trkpt lat="50.49689" lon="3.59006">
        <ele>40</ele>
        <time>2023-05-17T23:07:40Z</time>
      </trkpt>
      <trkpt lat="50.49584" lon="3.59041">
        <ele>39</ele>
        <time>2023-05-17T23:08:05Z</time>
      </trkpt>
      <trkpt lat="50.49526" lon="3.59063">
        <ele>40</ele>
        <time>2023-05-17T23:08:19Z</time>
      </trkpt>
      <trkpt lat="50.49448" lon="3.59107">
        <ele>41</ele>
        <time>2023-05-17T23:08:38Z</time>
      </trkpt>
      <trkpt lat="50.49389" lon="3.59139">
        <ele>42</ele>
        <time>2023-05-17T23:08:53Z</time>
      </trkpt>
      <trkpt lat="50.49308" lon="3.59189">
        <ele>44</ele>
        <time>2023-05-17T23:09:13Z</time>
      </trkpt>
      <trkpt lat="50.49244" lon="3.59232">
        <ele>47</ele>
        <time>2023-05-17T23:09:29Z</time>
      </trkpt>
      <trkpt lat="50.49215" lon="3.59251">
        <ele>49</ele>
        <time>2023-05-17T23:09:37Z</time>
      </trkpt>
      <trkpt lat="50.49155" lon="3.59284">
        <ele>54</ele>
        <time>2023-05-17T23:09:51Z</time>
      </trkpt>
      <trkpt lat="50.49084" lon="3.59319">
        <ele>55</ele>
        <time>2023-05-17T23:10:09Z</time>
      </trkpt>
      <trkpt lat="50.49075" lon="3.59338">
        <ele>55</ele>
        <time>2023-05-17T23:10:12Z</time>
      </trkpt>
      <trkpt lat="50.49086" lon="3.59374">
        <ele>54</ele>
        <time>2023-05-17T23:10:18Z</time>
      </trkpt>
      <trkpt lat="50.49116" lon="3.59459">
        <ele>54</ele>
        <time>2023-05-17T23:10:33Z</time>
      </trkpt>
      <trkpt lat="50.4916" lon="3.59574">
        <ele>56</ele>
        <time>2023-05-17T23:10:53Z</time>
      </trkpt>
      <trkpt lat="50.49203" lon="3.59687">
        <ele>55</ele>
        <time>2023-05-17T23:11:12Z</time>
      </trkpt>
      <trkpt lat="50.49235" lon="3.59774">
        <ele>54</ele>
        <time>2023-05-17T23:11:27Z</time>
      </trkpt>
      <trkpt lat="50.4927" lon="3.59862">
        <ele>54</ele>
        <time>2023-05-17T23:11:43Z</time>
      </trkpt>
      <trkpt lat="50.49419" lon="3.60335">
        <ele>54</ele>
        <time>2023-05-17T23:13:01Z</time>
      </trkpt>
      <trkpt lat="50.49446" lon="3.60425">
        <ele>55</ele>
        <time>2023-05-17T23:13:16Z</time>
      </trkpt>
      <trkpt lat="50.49484" lon="3.60548">
        <ele>51</ele>
        <time>2023-05-17T23:13:36Z</time>
      </trkpt>
      <trkpt lat="50.49534" lon="3.60711">
        <ele>49</ele>
        <time>2023-05-17T23:14:03Z</time>
      </trkpt>
      <trkpt lat="50.49577" lon="3.60747">
        <ele>50</ele>
        <time>2023-05-17T23:14:14Z</time>
      </trkpt>
      <trkpt lat="50.49633" lon="3.60827">
        <ele>52</ele>
        <time>2023-05-17T23:14:32Z</time>
      </trkpt>
      <trkpt lat="50.49643" lon="3.60854">
        <ele>52</ele>
        <time>2023-05-17T23:14:37Z</time>
      </trkpt>
      <trkpt lat="50.49651" lon="3.60877">
        <ele>52</ele>
        <time>2023-05-17T23:14:40Z</time>
      </trkpt>
      <trkpt lat="50.49674" lon="3.60915">
        <ele>52</ele>
        <time>2023-05-17T23:14:48Z</time>
      </trkpt>
      <trkpt lat="50.49696" lon="3.6096">
        <ele>54</ele>
        <time>2023-05-17T23:14:57Z</time>
      </trkpt>
      <trkpt lat="50.49695" lon="3.61059">
        <ele>55</ele>
        <time>2023-05-17T23:15:11Z</time>
      </trkpt>
      <trkpt lat="50.49695" lon="3.61098">
        <ele>55</ele>
        <time>2023-05-17T23:15:17Z</time>
      </trkpt>
      <trkpt lat="50.49698" lon="3.61121">
        <ele>55</ele>
        <time>2023-05-17T23:15:21Z</time>
      </trkpt>
      <trkpt lat="50.49686" lon="3.61122">
        <ele>54</ele>
        <time>2023-05-17T23:15:24Z</time>
      </trkpt>
      <trkpt lat="50.49654" lon="3.61129">
        <ele>52</ele>
        <time>2023-05-17T23:15:31Z</time>
      </trkpt>
      <trkpt lat="50.49594" lon="3.61124">
        <ele>50</ele>
        <time>2023-05-17T23:15:45Z</time>
      </trkpt>
      <trkpt lat="50.49544" lon="3.61143">
        <ele>48</ele>
        <time>2023-05-17T23:15:57Z</time>
      </trkpt>
      <trkpt lat="50.49497" lon="3.61182">
        <ele>47</ele>
        <time>2023-05-17T23:16:10Z</time>
      </trkpt>
      <trkpt lat="50.4947" lon="3.612">
        <ele>47</ele>
        <time>2023-05-17T23:16:16Z</time>
      </trkpt>
      <trkpt lat="50.49456" lon="3.61228">
        <ele>47</ele>
        <time>2023-05-17T23:16:22Z</time>
      </trkpt>
      <trkpt lat="50.49426" lon="3.61256">
        <ele>46</ele>
        <time>2023-05-17T23:16:30Z</time>
      </trkpt>
      <trkpt lat="50.49401" lon="3.61265">
        <ele>46</ele>
        <time>2023-05-17T23:16:36Z</time>
      </trkpt>
      <trkpt lat="50.4938" lon="3.61261">
        <ele>47</ele>
        <time>2023-05-17T23:16:41Z</time>
      </trkpt>
      <trkpt lat="50.49346" lon="3.61263">
        <ele>47</ele>
        <time>2023-05-17T23:16:49Z</time>
      </trkpt>
      <trkpt lat="50.49293" lon="3.61294">
        <ele>47</ele>
        <time>2023-05-17T23:17:02Z</time>
      </trkpt>
      <trkpt lat="50.49285" lon="3.613">
        <ele>48</ele>
        <time>2023-05-17T23:17:04Z</time>
      </trkpt>
      <trkpt lat="50.49258" lon="3.61335">
        <ele>48</ele>
        <time>2023-05-17T23:17:12Z</time>
      </trkpt>
      <trkpt lat="50.49247" lon="3.61373">
        <ele>47</ele>
        <time>2023-05-17T23:17:18Z</time>
      </trkpt>
      <trkpt lat="50.4922" lon="3.61391">
        <ele>47</ele>
        <time>2023-05-17T23:17:25Z</time>
      </trkpt>
      <trkpt lat="50.49198" lon="3.61412">
        <ele>47</ele>
        <time>2023-05-17T23:17:31Z</time>
      </trkpt>
      <trkpt lat="50.49175" lon="3.61433">
        <ele>48</ele>
        <time>2023-05-17T23:17:37Z</time>
      </trkpt>
      <trkpt lat="50.49151" lon="3.61476">
        <ele>47</ele>
        <time>2023-05-17T23:17:46Z</time>
      </trkpt>
      <trkpt lat="50.49121" lon="3.61485">
        <ele>47</ele>
        <time>2023-05-17T23:17:53Z</time>
      </trkpt>
      <trkpt lat="50.49064" lon="3.61538">
        <ele>46</ele>
        <time>2023-05-17T23:18:09Z</time>
      </trkpt>
      <trkpt lat="50.4904" lon="3.61535">
        <ele>45</ele>
        <time>2023-05-17T23:18:14Z</time>
      </trkpt>
      <trkpt lat="50.48994" lon="3.61563">
        <ele>43</ele>
        <time>2023-05-17T23:18:26Z</time>
      </trkpt>
      <trkpt lat="50.48943" lon="3.61622">
        <ele>42</ele>
        <time>2023-05-17T23:18:40Z</time>
      </trkpt>
      <trkpt lat="50.48902" lon="3.61668">
        <ele>43</ele>
        <time>2023-05-17T23:18:52Z</time>
      </trkpt>
      <trkpt lat="50.48815" lon="3.61764">
        <ele>41</ele>
        <time>2023-05-17T23:19:17Z</time>
      </trkpt>
      <trkpt lat="50.48682" lon="3.61917">
        <ele>39</ele>
        <time>2023-05-17T23:19:56Z</time>
      </trkpt>
      <trkpt lat="50.48502" lon="3.62273">
        <ele>34</ele>
        <time>2023-05-17T23:21:03Z</time>
      </trkpt>
      <trkpt lat="50.48875" lon="3.62371">
        <ele>46</ele>
        <time>2023-05-17T23:22:31Z</time>
      </trkpt>
      <trkpt lat="50.49019" lon="3.6241">
        <ele>48</ele>
        <time>2023-05-17T23:23:06Z</time>
      </trkpt>
      <trkpt lat="50.49066" lon="3.62423">
        <ele>47</ele>
        <time>2023-05-17T23:23:17Z</time>
      </trkpt>
      <trkpt lat="50.49147" lon="3.62443">
        <ele>46</ele>
        <time>2023-05-17T23:23:36Z</time>
      </trkpt>
      <trkpt lat="50.49222" lon="3.62464">
        <ele>44</ele>
        <time>2023-05-17T23:23:54Z</time>
      </trkpt>
      <trkpt lat="50.49279" lon="3.62757">
        <ele>47</ele>
        <time>2023-05-17T23:24:39Z</time>
      </trkpt>
      <trkpt lat="50.49312" lon="3.62925">
        <ele>48</ele>
        <time>2023-05-17T23:25:05Z</time>
      </trkpt>
      <trkpt lat="50.49344" lon="3.63094">
        <ele>49</ele>
        <time>2023-05-17T23:25:31Z</time>
      </trkpt>
      <trkpt lat="50.49394" lon="3.63355">
        <ele>52</ele>
        <time>2023-05-17T23:26:12Z</time>
      </trkpt>
      <trkpt lat="50.49459" lon="3.63303">
        <ele>54</ele>
        <time>2023-05-17T23:26:29Z</time>
      </trkpt>
      <trkpt lat="50.49489" lon="3.63274">
        <ele>55</ele>
        <time>2023-05-17T23:26:37Z</time>
      </trkpt>
      <trkpt lat="50.49513" lon="3.63239">
        <ele>56</ele>
        <time>2023-05-17T23:26:45Z</time>
      </trkpt>
      <trkpt lat="50.49514" lon="3.63245">
        <ele>56</ele>
        <time>2023-05-17T23:26:46Z</time>
      </trkpt>
      <trkpt lat="50.49531" lon="3.63367">
        <ele>59</ele>
        <time>2023-05-17T23:27:04Z</time>
      </trkpt>
      <trkpt lat="50.49559" lon="3.63538">
        <ele>63</ele>
        <time>2023-05-17T23:27:31Z</time>
      </trkpt>
      <trkpt lat="50.49559" lon="3.636">
        <ele>62</ele>
        <time>2023-05-17T23:27:40Z</time>
      </trkpt>
      <trkpt lat="50.49604" lon="3.63699">
        <ele>63</ele>
        <time>2023-05-17T23:27:58Z</time>
      </trkpt>
      <trkpt lat="50.4963" lon="3.63721">
        <ele>64</ele>
        <time>2023-05-17T23:28:05Z</time>
      </trkpt>
      <trkpt lat="50.49642" lon="3.63724">
        <ele>64</ele>
        <time>2023-05-17T23:28:08Z</time>
      </trkpt>
      <trkpt lat="50.49712" lon="3.63755">
        <ele>63</ele>
        <time>2023-05-17T23:28:25Z</time>
      </trkpt>
      <trkpt lat="50.49744" lon="3.63766">
        <ele>62</ele>
        <time>2023-05-17T23:28:32Z</time>
      </trkpt>
      <trkpt lat="50.4978" lon="3.6378">
        <ele>60</ele>
        <time>2023-05-17T23:28:41Z</time>
      </trkpt>
      <trkpt lat="50.4978" lon="3.63807">
        <ele>61</ele>
        <time>2023-05-17T23:28:45Z</time>
      </trkpt>
      <trkpt lat="50.49751" lon="3.63866">
        <ele>64</ele>
        <time>2023-05-17T23:28:56Z</time>
      </trkpt>
      <trkpt lat="50.49717" lon="3.63927">
        <ele>61</ele>
        <time>2023-05-17T23:29:08Z</time>
      </trkpt>
      <trkpt lat="50.49694" lon="3.63968">
        <ele>59</ele>
        <time>2023-05-17T23:29:16Z</time>
      </trkpt>
      <trkpt lat="50.49659" lon="3.64024">
        <ele>57</ele>
        <time>2023-05-17T23:29:28Z</time>
      </trkpt>
      <trkpt lat="50.49624" lon="3.64062">
        <ele>56</ele>
        <time>2023-05-17T23:29:38Z</time>
      </trkpt>
      <trkpt lat="50.49589" lon="3.64097">
        <ele>55</ele>
        <time>2023-05-17T23:29:47Z</time>
      </trkpt>
      <trkpt lat="50.49566" lon="3.64118">
        <ele>52</ele>
        <time>2023-05-17T23:29:54Z</time>
      </trkpt>
      <trkpt lat="50.49551" lon="3.64131">
        <ele>50</ele>
        <time>2023-05-17T23:29:58Z</time>
      </trkpt>
      <trkpt lat="50.4956" lon="3.64205">
        <ele>48</ele>
        <time>2023-05-17T23:30:09Z</time>
      </trkpt>
      <trkpt lat="50.49565" lon="3.64224">
        <ele>48</ele>
        <time>2023-05-17T23:30:12Z</time>
      </trkpt>
      <trkpt lat="50.49575" lon="3.6428">
        <ele>47</ele>
        <time>2023-05-17T23:30:20Z</time>
      </trkpt>
      <trkpt lat="50.49589" lon="3.64367">
        <ele>46</ele>
        <time>2023-05-17T23:30:34Z</time>
      </trkpt>
      <trkpt lat="50.49567" lon="3.64432">
        <ele>43</ele>
        <time>2023-05-17T23:30:45Z</time>
      </trkpt>
      <trkpt lat="50.4949" lon="3.64621">
        <ele>40</ele>
        <time>2023-05-17T23:31:18Z</time>
      </trkpt>
      <trkpt lat="50.49449" lon="3.64767">
        <ele>38</ele>
        <time>2023-05-17T23:31:42Z</time>
      </trkpt>
      <trkpt lat="50.4939" lon="3.6498">
        <ele>35</ele>
        <time>2023-05-17T23:32:16Z</time>
      </trkpt>
      <trkpt lat="50.49392" lon="3.65008">
        <ele>34</ele>
        <time>2023-05-17T23:32:21Z</time>
      </trkpt>
      <trkpt lat="50.4932" lon="3.65244">
        <ele>32</ele>
        <time>2023-05-17T23:32:59Z</time>
      </trkpt>
      <trkpt lat="50.49261" lon="3.65436">
        <ele>34</ele>
        <time>2023-05-17T23:33:31Z</time>
      </trkpt>
      <trkpt lat="50.49212" lon="3.65588">
        <ele>36</ele>
        <time>2023-05-17T23:33:56Z</time>
      </trkpt>
      <trkpt lat="50.49204" lon="3.65612">
        <ele>36</ele>
        <time>2023-05-17T23:34:00Z</time>
      </trkpt>
      <trkpt lat="50.49137" lon="3.6582">
        <ele>28</ele>
        <time>2023-05-17T23:34:35Z</time>
      </trkpt>
      <trkpt lat="50.49102" lon="3.65892">
        <ele>30</ele>
        <time>2023-05-17T23:34:49Z</time>
      </trkpt>
      <trkpt lat="50.49054" lon="3.65968">
        <ele>31</ele>
        <time>2023-05-17T23:35:04Z</time>
      </trkpt>
      <trkpt lat="50.49078" lon="3.66032">
        <ele>32</ele>
        <time>2023-05-17T23:35:15Z</time>
      </trkpt>
      <trkpt lat="50.49074" lon="3.66067">
        <ele>33</ele>
        <time>2023-05-17T23:35:21Z</time>
      </trkpt>
      <trkpt lat="50.49058" lon="3.66111">
        <ele>34</ele>
        <time>2023-05-17T23:35:28Z</time>
      </trkpt>
      <trkpt lat="50.49043" lon="3.66164">
        <ele>34</ele>
        <time>2023-05-17T23:35:37Z</time>
      </trkpt>
      <trkpt lat="50.49007" lon="3.66121">
        <ele>35</ele>
        <time>2023-05-17T23:35:47Z</time>
      </trkpt>
      <trkpt lat="50.49002" lon="3.66128">
        <ele>35</ele>
        <time>2023-05-17T23:35:49Z</time>
      </trkpt>
      <trkpt lat="50.49014" lon="3.66164">
        <ele>35</ele>
        <time>2023-05-17T23:35:55Z</time>
      </trkpt>
      <trkpt lat="50.49011" lon="3.66173">
        <ele>35</ele>
        <time>2023-05-17T23:35:57Z</time>
      </trkpt>
      <trkpt lat="50.49084" lon="3.66326">
        <ele>38</ele>
        <time>2023-05-17T23:36:25Z</time>
      </trkpt>
      <trkpt lat="50.49121" lon="3.66413">
        <ele>44</ele>
        <time>2023-05-17T23:36:41Z</time>
      </trkpt>
      <trkpt lat="50.49181" lon="3.66555">
        <ele>53</ele>
        <time>2023-05-17T23:37:06Z</time>
      </trkpt>
      <trkpt lat="50.49271" lon="3.66827">
        <ele>49</ele>
        <time>2023-05-17T23:37:51Z</time>
      </trkpt>
      <trkpt lat="50.49315" lon="3.66963">
        <ele>49</ele>
        <time>2023-05-17T23:38:14Z</time>
      </trkpt>
      <trkpt lat="50.49339" lon="3.67042">
        <ele>50</ele>
        <time>2023-05-17T23:38:27Z</time>
      </trkpt>
      <trkpt lat="50.49429" lon="3.67311">
        <ele>54</ele>
        <time>2023-05-17T23:39:12Z</time>
      </trkpt>
      <trkpt lat="50.49475" lon="3.67449">
        <ele>54</ele>
        <time>2023-05-17T23:39:35Z</time>
      </trkpt>
      <trkpt lat="50.49507" lon="3.67513">
        <ele>55</ele>
        <time>2023-05-17T23:39:47Z</time>
      </trkpt>
      <trkpt lat="50.49542" lon="3.67563">
        <ele>55</ele>
        <time>2023-05-17T23:39:59Z</time>
      </trkpt>
      <trkpt lat="50.49603" lon="3.67625">
        <ele>55</ele>
        <time>2023-05-17T23:40:15Z</time>
      </trkpt>
      <trkpt lat="50.49657" lon="3.67655">
        <ele>54</ele>
        <time>2023-05-17T23:40:29Z</time>
      </trkpt>
      <trkpt lat="50.49678" lon="3.67668">
        <ele>55</ele>
        <time>2023-05-17T23:40:34Z</time>
      </trkpt>
      <trkpt lat="50.49707" lon="3.6767">
        <ele>54</ele>
        <time>2023-05-17T23:40:41Z</time>
      </trkpt>
      <trkpt lat="50.4974" lon="3.67675">
        <ele>53</ele>
        <time>2023-05-17T23:40:49Z</time>
      </trkpt>
      <trkpt lat="50.49801" lon="3.67664">
        <ele>49</ele>
        <time>2023-05-17T23:41:03Z</time>
      </trkpt>
      <trkpt lat="50.49832" lon="3.6763">
        <ele>46</ele>
        <time>2023-05-17T23:41:12Z</time>
      </trkpt>
      <trkpt lat="50.49863" lon="3.67576">
        <ele>44</ele>
        <time>2023-05-17T23:41:23Z</time>
      </trkpt>
      <trkpt lat="50.49837" lon="3.67578">
        <ele>45</ele>
        <time>2023-05-17T23:41:29Z</time>
      </trkpt>
      <trkpt lat="50.49777" lon="3.6756">
        <ele>47</ele>
        <time>2023-05-17T23:41:43Z</time>
      </trkpt>
      <trkpt lat="50.4974" lon="3.67546">
        <ele>48</ele>
        <time>2023-05-17T23:41:52Z</time>
      </trkpt>
      <trkpt lat="50.49685" lon="3.6754">
        <ele>48</ele>
        <time>2023-05-17T23:42:05Z</time>
      </trkpt>
      <trkpt lat="50.49651" lon="3.67522">
        <ele>49</ele>
        <time>2023-05-17T23:42:13Z</time>
      </trkpt>
      <trkpt lat="50.4965" lon="3.67511">
        <ele>48</ele>
        <time>2023-05-17T23:42:15Z</time>
      </trkpt>
      <trkpt lat="50.49669" lon="3.67422">
        <ele>48</ele>
        <time>2023-05-17T23:42:29Z</time>
      </trkpt>
      <trkpt lat="50.49668" lon="3.67395">
        <ele>47</ele>
        <time>2023-05-17T23:42:33Z</time>
      </trkpt>
      <trkpt lat="50.4965" lon="3.67313">
        <ele>46</ele>
        <time>2023-05-17T23:42:46Z</time>
      </trkpt>
      <trkpt lat="50.49637" lon="3.67265">
        <ele>46</ele>
        <time>2023-05-17T23:42:53Z</time>
      </trkpt>
      <trkpt lat="50.49627" lon="3.67181">
        <ele>46</ele>
        <time>2023-05-17T23:43:06Z</time>
      </trkpt>
      <trkpt lat="50.4953" lon="3.67056">
        <ele>49</ele>
        <time>2023-05-17T23:43:35Z</time>
      </trkpt>
      <trkpt lat="50.4948" lon="3.6706">
        <ele>51</ele>
        <time>2023-05-17T23:43:47Z</time>
      </trkpt>
      <trkpt lat="50.49456" lon="3.66954">
        <ele>52</ele>
        <time>2023-05-17T23:44:04Z</time>
      </trkpt>
      <trkpt lat="50.4941" lon="3.6685">
        <ele>54</ele>
        <time>2023-05-17T23:44:23Z</time>
      </trkpt>
      <trkpt lat="50.4939" lon="3.66797">
        <ele>53</ele>
        <time>2023-05-17T23:44:32Z</time>
      </trkpt>
      <trkpt lat="50.49416" lon="3.66742">
        <ele>54</ele>
        <time>2023-05-17T23:44:42Z</time>
      </trkpt>
      <trkpt lat="50.49392" lon="3.66698">
        <ele>53</ele>
        <time>2023-05-17T23:44:51Z</time>
      </trkpt>
      <trkpt lat="50.49383" lon="3.66685">
        <ele>53</ele>
        <time>2023-05-17T23:44:53Z</time>
      </trkpt>
      <trkpt lat="50.49362" lon="3.66643">
        <ele>53</ele>
        <time>2023-05-17T23:45:01Z</time>
      </trkpt>
      <trkpt lat="50.49334" lon="3.66614">
        <ele>53</ele>
        <time>2023-05-17T23:45:09Z</time>
      </trkpt>
      <trkpt lat="50.49299" lon="3.66548">
        <ele>53</ele>
        <time>2023-05-17T23:45:22Z</time>
      </trkpt>
      <trkpt lat="50.49242" lon="3.66454">
        <ele>54</ele>
        <time>2023-05-17T23:45:41Z</time>
      </trkpt>
      <trkpt lat="50.49229" lon="3.66453">
        <ele>53</ele>
        <time>2023-05-17T23:45:44Z</time>
      </trkpt>
      <trkpt lat="50.49219" lon="3.66467">
        <ele>52</ele>
        <time>2023-05-17T23:45:47Z</time>
      </trkpt>
      <trkpt lat="50.49213" lon="3.66483">
        <ele>52</ele>
        <time>2023-05-17T23:45:50Z</time>
      </trkpt>
      <trkpt lat="50.49192" lon="3.66466">
        <ele>51</ele>
        <time>2023-05-17T23:45:56Z</time>
      </trkpt>
      <trkpt lat="50.49192" lon="3.66436">
        <ele>50</ele>
        <time>2023-05-17T23:46:00Z</time>
      </trkpt>
      <trkpt lat="50.49203" lon="3.66389">
        <ele>50</ele>
        <time>2023-05-17T23:46:08Z</time>
      </trkpt>
      <trkpt lat="50.49226" lon="3.66353">
        <ele>51</ele>
        <time>2023-05-17T23:46:15Z</time>
      </trkpt>
      <trkpt lat="50.49244" lon="3.6634">
        <ele>52</ele>
        <time>2023-05-17T23:46:20Z</time>
      </trkpt>
      <trkpt lat="50.49291" lon="3.66378">
        <ele>53</ele>
        <time>2023-05-17T23:46:32Z</time>
      </trkpt>
      <trkpt lat="50.49281" lon="3.66361">
        <ele>53</ele>
        <time>2023-05-17T23:46:36Z</time>
      </trkpt>
      <trkpt lat="50.49267" lon="3.66339">
        <ele>53</ele>
        <time>2023-05-17T23:46:40Z</time>
      </trkpt>
      <trkpt lat="50.49242" lon="3.66274">
        <ele>48</ele>
        <time>2023-05-17T23:46:51Z</time>
      </trkpt>
      <trkpt lat="50.49182" lon="3.66127">
        <ele>39</ele>
        <time>2023-05-17T23:47:17Z</time>
      </trkpt>
      <trkpt lat="50.49269" lon="3.66159">
        <ele>47</ele>
        <time>2023-05-17T23:47:38Z</time>
      </trkpt>
      <trkpt lat="50.49326" lon="3.6618">
        <ele>52</ele>
        <time>2023-05-17T23:47:52Z</time>
      </trkpt>
      <trkpt lat="50.49391" lon="3.66208">
        <ele>54</ele>
        <time>2023-05-17T23:48:08Z</time>
      </trkpt>
      <trkpt lat="50.49455" lon="3.66238">
        <ele>54</ele>
        <time>2023-05-17T23:48:23Z</time>
      </trkpt>
      <trkpt lat="50.49532" lon="3.66261">
        <ele>55</ele>
        <time>2023-05-17T23:48:42Z</time>
      </trkpt>
      <trkpt lat="50.49606" lon="3.66287">
        <ele>55</ele>
        <time>2023-05-17T23:48:59Z</time>
      </trkpt>
      <trkpt lat="50.4963" lon="3.66287">
        <ele>55</ele>
        <time>2023-05-17T23:49:05Z</time>
      </trkpt>
      <trkpt lat="50.49639" lon="3.66303">
        <ele>54</ele>
        <time>2023-05-17T23:49:08Z</time>
      </trkpt>
      <trkpt lat="50.49656" lon="3.66317">
        <ele>54</ele>
        <time>2023-05-17T23:49:13Z</time>
      </trkpt>
      <trkpt lat="50.49687" lon="3.66365">
        <ele>54</ele>
        <time>2023-05-17T23:49:23Z</time>
      </trkpt>
      <trkpt lat="50.49705" lon="3.66396">
        <ele>55</ele>
        <time>2023-05-17T23:49:29Z</time>
      </trkpt>
      <trkpt lat="50.49767" lon="3.66497">
        <ele>53</ele>
        <time>2023-05-17T23:49:50Z</time>
      </trkpt>
      <trkpt lat="50.49755" lon="3.66521">
        <ele>52</ele>
        <time>2023-05-17T23:49:54Z</time>
      </trkpt>
      <trkpt lat="50.49754" lon="3.66519">
        <ele>53</ele>
        <time>2023-05-17T23:49:55Z</time>
      </trkpt>
      <trkpt lat="50.49736" lon="3.66555">
        <ele>51</ele>
        <time>2023-05-17T23:50:01Z</time>
      </trkpt>
      <trkpt lat="50.49706" lon="3.66618">
        <ele>49</ele>
        <time>2023-05-17T23:50:13Z</time>
      </trkpt>
      <trkpt lat="50.49718" lon="3.66608">
        <ele>49</ele>
        <time>2023-05-17T23:50:16Z</time>
      </trkpt>
      <trkpt lat="50.4973" lon="3.6659">
        <ele>49</ele>
        <time>2023-05-17T23:50:20Z</time>
      </trkpt>
      <trkpt lat="50.49742" lon="3.66583">
        <ele>49</ele>
        <time>2023-05-17T23:50:23Z</time>
      </trkpt>
      <trkpt lat="50.49776" lon="3.66571">
        <ele>48</ele>
        <time>2023-05-17T23:50:31Z</time>
      </trkpt>
      <trkpt lat="50.49819" lon="3.66536">
        <ele>47</ele>
        <time>2023-05-17T23:50:43Z</time>
      </trkpt>
      <trkpt lat="50.49864" lon="3.66494">
        <ele>44</ele>
        <time>2023-05-17T23:50:55Z</time>
      </trkpt>
      <trkpt lat="50.49873" lon="3.66409">
        <ele>45</ele>
        <time>2023-05-17T23:51:08Z</time>
      </trkpt>
      <trkpt lat="50.49878" lon="3.66362">
        <ele>44</ele>
        <time>2023-05-17T23:51:15Z</time>
      </trkpt>
      <trkpt lat="50.49892" lon="3.66346">
        <ele>42</ele>
        <time>2023-05-17T23:51:19Z</time>
      </trkpt>
      <trkpt lat="50.49913" lon="3.66338">
        <ele>39</ele>
        <time>2023-05-17T23:51:24Z</time>
      </trkpt>
      <trkpt lat="50.49961" lon="3.66322">
        <ele>36</ele>
        <time>2023-05-17T23:51:35Z</time>
      </trkpt>
      <trkpt lat="50.49969" lon="3.66319">
        <ele>36</ele>
        <time>2023-05-17T23:51:37Z</time>
      </trkpt>
      <trkpt lat="50.49988" lon="3.66315">
        <ele>35</ele>
        <time>2023-05-17T23:51:42Z</time>
      </trkpt>
      <trkpt lat="50.50006" lon="3.66313">
        <ele>35</ele>
        <time>2023-05-17T23:51:46Z</time>
      </trkpt>
      <trkpt lat="50.50022" lon="3.66316">
        <ele>36</ele>
        <time>2023-05-17T23:51:50Z</time>
      </trkpt>
      <trkpt lat="50.50029" lon="3.66304">
        <ele>36</ele>
        <time>2023-05-17T23:51:52Z</time>
      </trkpt>
      <trkpt lat="50.50032" lon="3.66291">
        <ele>36</ele>
        <time>2023-05-17T23:51:54Z</time>
      </trkpt>
      <trkpt lat="50.50031" lon="3.66274">
        <ele>36</ele>
        <time>2023-05-17T23:51:57Z</time>
      </trkpt>
      <trkpt lat="50.50028" lon="3.66254">
        <ele>36</ele>
        <time>2023-05-17T23:52:00Z</time>
      </trkpt>
      <trkpt lat="50.50012" lon="3.6626">
        <ele>35</ele>
        <time>2023-05-17T23:52:04Z</time>
      </trkpt>
      <trkpt lat="50.49996" lon="3.66252">
        <ele>35</ele>
        <time>2023-05-17T23:52:07Z</time>
      </trkpt>
      <trkpt lat="50.49977" lon="3.66228">
        <ele>36</ele>
        <time>2023-05-17T23:52:13Z</time>
      </trkpt>
      <trkpt lat="50.49953" lon="3.66199">
        <ele>36</ele>
        <time>2023-05-17T23:52:20Z</time>
      </trkpt>
      <trkpt lat="50.49909" lon="3.66143">
        <ele>36</ele>
        <time>2023-05-17T23:52:33Z</time>
      </trkpt>
      <trkpt lat="50.49899" lon="3.66129">
        <ele>36</ele>
        <time>2023-05-17T23:52:37Z</time>
      </trkpt>
      <trkpt lat="50.49873" lon="3.66095">
        <ele>36</ele>
        <time>2023-05-17T23:52:45Z</time>
      </trkpt>
      <trkpt lat="50.4984" lon="3.66056">
        <ele>35</ele>
        <time>2023-05-17T23:52:54Z</time>
      </trkpt>
      <trkpt lat="50.49807" lon="3.66013">
        <ele>35</ele>
        <time>2023-05-17T23:53:04Z</time>
      </trkpt>
      <trkpt lat="50.49762" lon="3.65957">
        <ele>35</ele>
        <time>2023-05-17T23:53:18Z</time>
      </trkpt>
      <trkpt lat="50.49739" lon="3.6593">
        <ele>35</ele>
        <time>2023-05-17T23:53:24Z</time>
      </trkpt>
      <trkpt lat="50.49711" lon="3.65901">
        <ele>34</ele>
        <time>2023-05-17T23:53:32Z</time>
      </trkpt>
      <trkpt lat="50.49694" lon="3.65884">
        <ele>34</ele>
        <time>2023-05-17T23:53:37Z</time>
      </trkpt>
      <trkpt lat="50.49683" lon="3.65878">
        <ele>33</ele>
        <time>2023-05-17T23:53:40Z</time>
      </trkpt>
      <trkpt lat="50.49647" lon="3.65849">
        <ele>34</ele>
        <time>2023-05-17T23:53:49Z</time>
      </trkpt>
      <trkpt lat="50.49641" lon="3.65846">
        <ele>34</ele>
        <time>2023-05-17T23:53:50Z</time>
      </trkpt>
      <trkpt lat="50.49603" lon="3.6582">
        <ele>36</ele>
        <time>2023-05-17T23:54:00Z</time>
      </trkpt>
      <trkpt lat="50.49595" lon="3.65815">
        <ele>36</ele>
        <time>2023-05-17T23:54:02Z</time>
      </trkpt>
      <trkpt lat="50.49561" lon="3.65804">
        <ele>37</ele>
        <time>2023-05-17T23:54:10Z</time>
      </trkpt>
      <trkpt lat="50.49517" lon="3.65787">
        <ele>36</ele>
        <time>2023-05-17T23:54:21Z</time>
      </trkpt>
      <trkpt lat="50.49487" lon="3.65781">
        <ele>36</ele>
        <time>2023-05-17T23:54:28Z</time>
      </trkpt>
      <trkpt lat="50.49422" lon="3.65776">
        <ele>34</ele>
        <time>2023-05-17T23:54:43Z</time>
      </trkpt>
      <trkpt lat="50.49393" lon="3.65776">
        <ele>34</ele>
        <time>2023-05-17T23:54:50Z</time>
      </trkpt>
      <trkpt lat="50.49366" lon="3.65778">
        <ele>33</ele>
        <time>2023-05-17T23:54:56Z</time>
      </trkpt>
      <trkpt lat="50.49342" lon="3.6578">
        <ele>32</ele>
        <time>2023-05-17T23:55:02Z</time>
      </trkpt>
      <trkpt lat="50.49284" lon="3.65798">
        <ele>32</ele>
        <time>2023-05-17T23:55:16Z</time>
      </trkpt>
      <trkpt lat="50.49269" lon="3.65803">
        <ele>32</ele>
        <time>2023-05-17T23:55:19Z</time>
      </trkpt>
      <trkpt lat="50.49256" lon="3.65805">
        <ele>31</ele>
        <time>2023-05-17T23:55:22Z</time>
      </trkpt>
      <trkpt lat="50.49237" lon="3.65801">
        <ele>31</ele>
        <time>2023-05-17T23:55:27Z</time>
      </trkpt>
      <trkpt lat="50.49222" lon="3.65779">
        <ele>31</ele>
        <time>2023-05-17T23:55:31Z</time>
      </trkpt>
      <trkpt lat="50.49219" lon="3.65765">
        <ele>31</ele>
        <time>2023-05-17T23:55:34Z</time>
      </trkpt>
      <trkpt lat="50.49217" lon="3.65749">
        <ele>32</ele>
        <time>2023-05-17T23:55:36Z</time>
      </trkpt>
      <trkpt lat="50.49222" lon="3.65728">
        <ele>32</ele>
        <time>2023-05-17T23:55:39Z</time>
      </trkpt>
      <trkpt lat="50.4925" lon="3.65635">
        <ele>34</ele>
        <time>2023-05-17T23:55:55Z</time>
      </trkpt>
      <trkpt lat="50.49259" lon="3.65601">
        <ele>35</ele>
        <time>2023-05-17T23:56:00Z</time>
      </trkpt>
      <trkpt lat="50.4927" lon="3.65567">
        <ele>35</ele>
        <time>2023-05-17T23:56:06Z</time>
      </trkpt>
      <trkpt lat="50.49294" lon="3.65482">
        <ele>34</ele>
        <time>2023-05-17T23:56:20Z</time>
      </trkpt>
      <trkpt lat="50.49314" lon="3.65416">
        <ele>34</ele>
        <time>2023-05-17T23:56:31Z</time>
      </trkpt>
      <trkpt lat="50.49327" lon="3.65375">
        <ele>34</ele>
        <time>2023-05-17T23:56:37Z</time>
      </trkpt>
      <trkpt lat="50.49339" lon="3.65331">
        <ele>34</ele>
        <time>2023-05-17T23:56:44Z</time>
      </trkpt>
      <trkpt lat="50.49373" lon="3.65218">
        <ele>33</ele>
        <time>2023-05-17T23:57:03Z</time>
      </trkpt>
      <trkpt lat="50.49387" lon="3.6522">
        <ele>34</ele>
        <time>2023-05-17T23:57:06Z</time>
      </trkpt>
      <trkpt lat="50.49394" lon="3.65221">
        <ele>34</ele>
        <time>2023-05-17T23:57:08Z</time>
      </trkpt>
      <trkpt lat="50.49401" lon="3.65227">
        <ele>35</ele>
        <time>2023-05-17T23:57:10Z</time>
      </trkpt>
      <trkpt lat="50.49412" lon="3.65243">
        <ele>36</ele>
        <time>2023-05-17T23:57:13Z</time>
      </trkpt>
      <trkpt lat="50.49417" lon="3.65261">
        <ele>36</ele>
        <time>2023-05-17T23:57:16Z</time>
      </trkpt>
      <trkpt lat="50.49422" lon="3.65271">
        <ele>36</ele>
        <time>2023-05-17T23:57:18Z</time>
      </trkpt>
      <trkpt lat="50.49431" lon="3.65288">
        <ele>36</ele>
        <time>2023-05-17T23:57:21Z</time>
      </trkpt>
      <trkpt lat="50.49457" lon="3.65283">
        <ele>37</ele>
        <time>2023-05-17T23:57:28Z</time>
      </trkpt>
      <trkpt lat="50.49491" lon="3.65287">
        <ele>38</ele>
        <time>2023-05-17T23:57:35Z</time>
      </trkpt>
      <trkpt lat="50.49508" lon="3.6529">
        <ele>39</ele>
        <time>2023-05-17T23:57:39Z</time>
      </trkpt>
      <trkpt lat="50.49537" lon="3.65296">
        <ele>41</ele>
        <time>2023-05-17T23:57:46Z</time>
      </trkpt>
      <trkpt lat="50.49545" lon="3.65317">
        <ele>42</ele>
        <time>2023-05-17T23:57:50Z</time>
      </trkpt>
      <trkpt lat="50.49556" lon="3.6536">
        <ele>43</ele>
        <time>2023-05-17T23:57:57Z</time>
      </trkpt>
      <trkpt lat="50.49565" lon="3.65396">
        <ele>43</ele>
        <time>2023-05-17T23:58:03Z</time>
      </trkpt>
      <trkpt lat="50.49567" lon="3.65403">
        <ele>44</ele>
        <time>2023-05-17T23:58:04Z</time>
      </trkpt>
      <trkpt lat="50.49575" lon="3.6542">
        <ele>44</ele>
        <time>2023-05-17T23:58:07Z</time>
      </trkpt>
      <trkpt lat="50.49586" lon="3.65432">
        <ele>45</ele>
        <time>2023-05-17T23:58:10Z</time>
      </trkpt>
      <trkpt lat="50.49619" lon="3.65455">
        <ele>45</ele>
        <time>2023-05-17T23:58:18Z</time>
      </trkpt>
      <trkpt lat="50.49645" lon="3.65471">
        <ele>45</ele>
        <time>2023-05-17T23:58:25Z</time>
      </trkpt>
      <trkpt lat="50.49666" lon="3.65486">
        <ele>44</ele>
        <time>2023-05-17T23:58:30Z</time>
      </trkpt>
      <trkpt lat="50.49674" lon="3.655">
        <ele>44</ele>
        <time>2023-05-17T23:58:33Z</time>
      </trkpt>
      <trkpt lat="50.4968" lon="3.65475">
        <ele>45</ele>
        <time>2023-05-17T23:58:37Z</time>
      </trkpt>
      <trkpt lat="50.49706" lon="3.65407">
        <ele>46</ele>
        <time>2023-05-17T23:58:49Z</time>
      </trkpt>
      <trkpt lat="50.4971" lon="3.65358">
        <ele>47</ele>
        <time>2023-05-17T23:58:56Z</time>
      </trkpt>
      <trkpt lat="50.4972" lon="3.65242">
        <ele>51</ele>
        <time>2023-05-17T23:59:14Z</time>
      </trkpt>
      <trkpt lat="50.49744" lon="3.65157">
        <ele>57</ele>
        <time>2023-05-17T23:59:27Z</time>
      </trkpt>
      <trkpt lat="50.4973" lon="3.65024">
        <ele>61</ele>
        <time>2023-05-17T23:59:47Z</time>
      </trkpt>
      <trkpt lat="50.49732" lon="3.65019">
        <ele>61</ele>
        <time>2023-05-17T23:59:48Z</time>
      </trkpt>
      <trkpt lat="50.49751" lon="3.65001">
        <ele>62</ele>
        <time>2023-05-17T23:59:53Z</time>
      </trkpt>
      <trkpt lat="50.49771" lon="3.64878">
        <ele>64</ele>
        <time>2023-05-18T00:00:12Z</time>
      </trkpt>
      <trkpt lat="50.49786" lon="3.64785">
        <ele>66</ele>
        <time>2023-05-18T00:00:27Z</time>
      </trkpt>
      <trkpt lat="50.49794" lon="3.64738">
        <ele>68</ele>
        <time>2023-05-18T00:00:34Z</time>
      </trkpt>
      <trkpt lat="50.49798" lon="3.64714">
        <ele>69</ele>
        <time>2023-05-18T00:00:38Z</time>
      </trkpt>
      <trkpt lat="50.49803" lon="3.64697">
        <ele>70</ele>
        <time>2023-05-18T00:00:40Z</time>
      </trkpt>
      <trkpt lat="50.49822" lon="3.64564">
        <ele>73</ele>
        <time>2023-05-18T00:01:01Z</time>
      </trkpt>
      <trkpt lat="50.49847" lon="3.64391">
        <ele>70</ele>
        <time>2023-05-18T00:01:27Z</time>
      </trkpt>
      <trkpt lat="50.49827" lon="3.6426">
        <ele>58</ele>
        <time>2023-05-18T00:01:47Z</time>
      </trkpt>
      <trkpt lat="50.5005" lon="3.63894">
        <ele>39</ele>
        <time>2023-05-18T00:03:02Z</time>
      </trkpt>
      <trkpt lat="50.50048" lon="3.63888">
        <ele>39</ele>
        <time>2023-05-18T00:03:03Z</time>
      </trkpt>
      <trkpt lat="50.50042" lon="3.63871">
        <ele>39</ele>
        <time>2023-05-18T00:03:06Z</time>
      </trkpt>
      <trkpt lat="50.50038" lon="3.63856">
        <ele>40</ele>
        <time>2023-05-18T00:03:09Z</time>
      </trkpt>
      <trkpt lat="50.50033" lon="3.63837">
        <ele>40</ele>
        <time>2023-05-18T00:03:12Z</time>
      </trkpt>
      <trkpt lat="50.5003" lon="3.63828">
        <ele>40</ele>
        <time>2023-05-18T00:03:13Z</time>
      </trkpt>
      <trkpt lat="50.50014" lon="3.6377">
        <ele>43</ele>
        <time>2023-05-18T00:03:22Z</time>
      </trkpt>
      <trkpt lat="50.49996" lon="3.6371">
        <ele>45</ele>
        <time>2023-05-18T00:03:32Z</time>
      </trkpt>
      <trkpt lat="50.49952" lon="3.6357">
        <ele>44</ele>
        <time>2023-05-18T00:03:56Z</time>
      </trkpt>
      <trkpt lat="50.49922" lon="3.6357">
        <ele>45</ele>
        <time>2023-05-18T00:04:03Z</time>
      </trkpt>
      <trkpt lat="50.49909" lon="3.6359">
        <ele>47</ele>
        <time>2023-05-18T00:04:07Z</time>
      </trkpt>
      <trkpt lat="50.49902" lon="3.636">
        <ele>49</ele>
        <time>2023-05-18T00:04:09Z</time>
      </trkpt>
      <trkpt lat="50.49876" lon="3.63649">
        <ele>55</ele>
        <time>2023-05-18T00:04:18Z</time>
      </trkpt>
      <trkpt lat="50.49854" lon="3.63716">
        <ele>56</ele>
        <time>2023-05-18T00:04:30Z</time>
      </trkpt>
      <trkpt lat="50.49826" lon="3.63777">
        <ele>57</ele>
        <time>2023-05-18T00:04:41Z</time>
      </trkpt>
      <trkpt lat="50.49817" lon="3.63807">
        <ele>58</ele>
        <time>2023-05-18T00:04:46Z</time>
      </trkpt>
      <trkpt lat="50.49808" lon="3.63805">
        <ele>59</ele>
        <time>2023-05-18T00:04:48Z</time>
      </trkpt>
      <trkpt lat="50.49806" lon="3.63794">
        <ele>59</ele>
        <time>2023-05-18T00:04:50Z</time>
      </trkpt>
      <trkpt lat="50.49799" lon="3.63791">
        <ele>59</ele>
        <time>2023-05-18T00:04:51Z</time>
      </trkpt>
      <trkpt lat="50.49791" lon="3.63784">
        <ele>59</ele>
        <time>2023-05-18T00:04:53Z</time>
      </trkpt>
      <trkpt lat="50.49799" lon="3.63771">
        <ele>59</ele>
        <time>2023-05-18T00:04:56Z</time>
      </trkpt>
      <trkpt lat="50.49804" lon="3.63735">
        <ele>58</ele>
        <time>2023-05-18T00:05:02Z</time>
      </trkpt>
      <trkpt lat="50.49808" lon="3.63699">
        <ele>59</ele>
        <time>2023-05-18T00:05:07Z</time>
      </trkpt>
      <trkpt lat="50.49808" lon="3.63605">
        <ele>65</ele>
        <time>2023-05-18T00:05:21Z</time>
      </trkpt>
      <trkpt lat="50.49788" lon="3.63508">
        <ele>71</ele>
        <time>2023-05-18T00:05:36Z</time>
      </trkpt>
      <trkpt lat="50.49793" lon="3.63376">
        <ele>70</ele>
        <time>2023-05-18T00:05:56Z</time>
      </trkpt>
      <trkpt lat="50.49767" lon="3.63246">
        <ele>72</ele>
        <time>2023-05-18T00:06:16Z</time>
      </trkpt>
      <trkpt lat="50.49759" lon="3.63168">
        <ele>73</ele>
        <time>2023-05-18T00:06:28Z</time>
      </trkpt>
      <trkpt lat="50.49756" lon="3.63144">
        <ele>73</ele>
        <time>2023-05-18T00:06:31Z</time>
      </trkpt>
      <trkpt lat="50.49753" lon="3.63062">
        <ele>72</ele>
        <time>2023-05-18T00:06:44Z</time>
      </trkpt>
      <trkpt lat="50.49755" lon="3.63014">
        <ele>73</ele>
        <time>2023-05-18T00:06:51Z</time>
      </trkpt>
      <trkpt lat="50.49757" lon="3.62917">
        <ele>73</ele>
        <time>2023-05-18T00:07:05Z</time>
      </trkpt>
      <trkpt lat="50.49749" lon="3.62854">
        <ele>71</ele>
        <time>2023-05-18T00:07:15Z</time>
      </trkpt>
      <trkpt lat="50.49748" lon="3.6281">
        <ele>71</ele>
        <time>2023-05-18T00:07:21Z</time>
      </trkpt>
      <trkpt lat="50.49754" lon="3.62769">
        <ele>70</ele>
        <time>2023-05-18T00:07:27Z</time>
      </trkpt>
      <trkpt lat="50.49746" lon="3.62701">
        <ele>71</ele>
        <time>2023-05-18T00:07:38Z</time>
      </trkpt>
      <trkpt lat="50.49747" lon="3.62607">
        <ele>72</ele>
        <time>2023-05-18T00:07:52Z</time>
      </trkpt>
      <trkpt lat="50.49748" lon="3.62544">
        <ele>71</ele>
        <time>2023-05-18T00:08:01Z</time>
      </trkpt>
      <trkpt lat="50.49757" lon="3.62449">
        <ele>66</ele>
        <time>2023-05-18T00:08:15Z</time>
      </trkpt>
      <trkpt lat="50.49757" lon="3.62416">
        <ele>64</ele>
        <time>2023-05-18T00:08:20Z</time>
      </trkpt>
      <trkpt lat="50.4976" lon="3.62379">
        <ele>65</ele>
        <time>2023-05-18T00:08:26Z</time>
      </trkpt>
      <trkpt lat="50.49764" lon="3.62344">
        <ele>65</ele>
        <time>2023-05-18T00:08:31Z</time>
      </trkpt>
      <trkpt lat="50.49742" lon="3.62371">
        <ele>64</ele>
        <time>2023-05-18T00:08:38Z</time>
      </trkpt>
      <trkpt lat="50.49724" lon="3.6237">
        <ele>63</ele>
        <time>2023-05-18T00:08:42Z</time>
      </trkpt>
      <trkpt lat="50.49704" lon="3.62374">
        <ele>61</ele>
        <time>2023-05-18T00:08:46Z</time>
      </trkpt>
      <trkpt lat="50.49661" lon="3.62405">
        <ele>56</ele>
        <time>2023-05-18T00:08:58Z</time>
      </trkpt>
      <trkpt lat="50.49633" lon="3.62451">
        <ele>57</ele>
        <time>2023-05-18T00:09:07Z</time>
      </trkpt>
      <trkpt lat="50.49624" lon="3.62496">
        <ele>59</ele>
        <time>2023-05-18T00:09:14Z</time>
      </trkpt>
      <trkpt lat="50.49592" lon="3.62561">
        <ele>56</ele>
        <time>2023-05-18T00:09:26Z</time>
      </trkpt>
      <trkpt lat="50.49577" lon="3.62558">
        <ele>55</ele>
        <time>2023-05-18T00:09:30Z</time>
      </trkpt>
      <trkpt lat="50.49583" lon="3.62406">
        <ele>54</ele>
        <time>2023-05-18T00:09:52Z</time>
      </trkpt>
      <trkpt lat="50.49598" lon="3.62278">
        <ele>53</ele>
        <time>2023-05-18T00:10:12Z</time>
      </trkpt>
      <trkpt lat="50.49601" lon="3.62197">
        <ele>51</ele>
        <time>2023-05-18T00:10:24Z</time>
      </trkpt>
      <trkpt lat="50.49614" lon="3.62122">
        <ele>51</ele>
        <time>2023-05-18T00:10:35Z</time>
      </trkpt>
      <trkpt lat="50.49615" lon="3.62048">
        <ele>52</ele>
        <time>2023-05-18T00:10:46Z</time>
      </trkpt>
      <trkpt lat="50.49641" lon="3.6205">
        <ele>53</ele>
        <time>2023-05-18T00:10:52Z</time>
      </trkpt>
      <trkpt lat="50.49706" lon="3.62087">
        <ele>62</ele>
        <time>2023-05-18T00:11:09Z</time>
      </trkpt>
      <trkpt lat="50.49767" lon="3.62085">
        <ele>72</ele>
        <time>2023-05-18T00:11:23Z</time>
      </trkpt>
      <trkpt lat="50.49765" lon="3.61892">
        <ele>72</ele>
        <time>2023-05-18T00:11:51Z</time>
      </trkpt>
      <trkpt lat="50.49781" lon="3.61789">
        <ele>73</ele>
        <time>2023-05-18T00:12:07Z</time>
      </trkpt>
      <trkpt lat="50.4979" lon="3.61749">
        <ele>73</ele>
        <time>2023-05-18T00:12:14Z</time>
      </trkpt>
      <trkpt lat="50.49806" lon="3.61629">
        <ele>69</ele>
        <time>2023-05-18T00:12:32Z</time>
      </trkpt>
      <trkpt lat="50.49821" lon="3.61526">
        <ele>71</ele>
        <time>2023-05-18T00:12:47Z</time>
      </trkpt>
      <trkpt lat="50.49812" lon="3.61373">
        <ele>66</ele>
        <time>2023-05-18T00:13:10Z</time>
      </trkpt>
      <trkpt lat="50.49799" lon="3.61287">
        <ele>63</ele>
        <time>2023-05-18T00:13:23Z</time>
      </trkpt>
      <trkpt lat="50.49798" lon="3.61246">
        <ele>62</ele>
        <time>2023-05-18T00:13:29Z</time>
      </trkpt>
      <trkpt lat="50.49792" lon="3.61217">
        <ele>62</ele>
        <time>2023-05-18T00:13:34Z</time>
      </trkpt>
      <trkpt lat="50.49792" lon="3.6119">
        <ele>62</ele>
        <time>2023-05-18T00:13:38Z</time>
      </trkpt>
      <trkpt lat="50.49785" lon="3.61126">
        <ele>61</ele>
        <time>2023-05-18T00:13:48Z</time>
      </trkpt>
      <trkpt lat="50.49785" lon="3.61107">
        <ele>61</ele>
        <time>2023-05-18T00:13:50Z</time>
      </trkpt>
      <trkpt lat="50.49786" lon="3.61102">
        <ele>61</ele>
        <time>2023-05-18T00:13:51Z</time>
      </trkpt>
      <trkpt lat="50.49782" lon="3.61097">
        <ele>61</ele>
        <time>2023-05-18T00:13:52Z</time>
      </trkpt>
      <trkpt lat="50.49779" lon="3.61033">
        <ele>61</ele>
        <time>2023-05-18T00:14:02Z</time>
      </trkpt>
      <trkpt lat="50.49806" lon="3.6102">
        <ele>62</ele>
        <time>2023-05-18T00:14:09Z</time>
      </trkpt>
      <trkpt lat="50.49828" lon="3.61007">
        <ele>63</ele>
        <time>2023-05-18T00:14:14Z</time>
      </trkpt>
      <trkpt lat="50.49851" lon="3.60984">
        <ele>63</ele>
        <time>2023-05-18T00:14:20Z</time>
      </trkpt>
      <trkpt lat="50.49844" lon="3.60968">
        <ele>62</ele>
        <time>2023-05-18T00:14:23Z</time>
      </trkpt>
      <trkpt lat="50.49882" lon="3.60922">
        <ele>61</ele>
        <time>2023-05-18T00:14:35Z</time>
      </trkpt>
      <trkpt lat="50.49886" lon="3.60927">
        <ele>61</ele>
        <time>2023-05-18T00:14:36Z</time>
      </trkpt>
      <trkpt lat="50.4992" lon="3.6088">
        <ele>58</ele>
        <time>2023-05-18T00:14:46Z</time>
      </trkpt>
      <trkpt lat="50.49954" lon="3.60825">
        <ele>51</ele>
        <time>2023-05-18T00:14:58Z</time>
      </trkpt>
      <trkpt lat="50.4997" lon="3.608">
        <ele>49</ele>
        <time>2023-05-18T00:15:03Z</time>
      </trkpt>
      <trkpt lat="50.4997" lon="3.60795">
        <ele>49</ele>
        <time>2023-05-18T00:15:04Z</time>
      </trkpt>
      <trkpt lat="50.5002" lon="3.60796">
        <ele>46</ele>
        <time>2023-05-18T00:15:15Z</time>
      </trkpt>
      <trkpt lat="50.50028" lon="3.60797">
        <ele>45</ele>
        <time>2023-05-18T00:15:17Z</time>
      </trkpt>
      <trkpt lat="50.50056" lon="3.60758">
        <ele>43</ele>
        <time>2023-05-18T00:15:26Z</time>
      </trkpt>
      <trkpt lat="50.50111" lon="3.6069">
        <ele>39</ele>
        <time>2023-05-18T00:15:42Z</time>
      </trkpt>
      <trkpt lat="50.50081" lon="3.60623">
        <ele>40</ele>
        <time>2023-05-18T00:15:54Z</time>
      </trkpt>
      <trkpt lat="50.50077" lon="3.6061">
        <ele>40</ele>
        <time>2023-05-18T00:15:57Z</time>
      </trkpt>
      <trkpt lat="50.50052" lon="3.60561">
        <ele>41</ele>
        <time>2023-05-18T00:16:06Z</time>
      </trkpt>
      <trkpt lat="50.5002" lon="3.60497">
        <ele>40</ele>
        <time>2023-05-18T00:16:18Z</time>
      </trkpt>
      <trkpt lat="50.49994" lon="3.60459">
        <ele>39</ele>
        <time>2023-05-18T00:16:26Z</time>
      </trkpt>
      <trkpt lat="50.50035" lon="3.60392">
        <ele>39</ele>
        <time>2023-05-18T00:16:40Z</time>
      </trkpt>
      <trkpt lat="50.50025" lon="3.60324">
        <ele>39</ele>
        <time>2023-05-18T00:16:51Z</time>
      </trkpt>
      <trkpt lat="50.5001" lon="3.60289">
        <ele>39</ele>
        <time>2023-05-18T00:16:57Z</time>
      </trkpt>
      <trkpt lat="50.50073" lon="3.60191">
        <ele>37</ele>
        <time>2023-05-18T00:17:17Z</time>
      </trkpt>
      <trkpt lat="50.50122" lon="3.60116">
        <ele>36</ele>
        <time>2023-05-18T00:17:33Z</time>
      </trkpt>
      <trkpt lat="50.50158" lon="3.6006">
        <ele>35</ele>
        <time>2023-05-18T00:17:45Z</time>
      </trkpt>
      <trkpt lat="50.50272" lon="3.59881">
        <ele>35</ele>
        <time>2023-05-18T00:18:23Z</time>
      </trkpt>
      <trkpt lat="50.50305" lon="3.59831">
        <ele>34</ele>
        <time>2023-05-18T00:18:34Z</time>
      </trkpt>
      <trkpt lat="50.5033" lon="3.59805">
        <ele>33</ele>
        <time>2023-05-18T00:18:41Z</time>
      </trkpt>
      <trkpt lat="50.50332" lon="3.59793">
        <ele>33</ele>
        <time>2023-05-18T00:18:42Z</time>
      </trkpt>
      <trkpt lat="50.50331" lon="3.59787">
        <ele>33</ele>
        <time>2023-05-18T00:18:43Z</time>
      </trkpt>
      <trkpt lat="50.50324" lon="3.59779">
        <ele>33</ele>
        <time>2023-05-18T00:18:45Z</time>
      </trkpt>
      <trkpt lat="50.5032" lon="3.59768">
        <ele>33</ele>
        <time>2023-05-18T00:18:47Z</time>
      </trkpt>
      <trkpt lat="50.50321" lon="3.59754">
        <ele>33</ele>
        <time>2023-05-18T00:18:49Z</time>
      </trkpt>
      <trkpt lat="50.50323" lon="3.59716">
        <ele>33</ele>
        <time>2023-05-18T00:18:55Z</time>
      </trkpt>
      <trkpt lat="50.5032" lon="3.59678">
        <ele>32</ele>
        <time>2023-05-18T00:19:01Z</time>
      </trkpt>
      <trkpt lat="50.50305" lon="3.59599">
        <ele>32</ele>
        <time>2023-05-18T00:19:13Z</time>
      </trkpt>
      <trkpt lat="50.50283" lon="3.5949">
        <ele>32</ele>
        <time>2023-05-18T00:19:30Z</time>
      </trkpt>
      <trkpt lat="50.50269" lon="3.59418">
        <ele>33</ele>
        <time>2023-05-18T00:19:41Z</time>
      </trkpt>
      <trkpt lat="50.50248" lon="3.59318">
        <ele>34</ele>
        <time>2023-05-18T00:19:57Z</time>
      </trkpt>
      <trkpt lat="50.50218" lon="3.59169">
        <ele>37</ele>
        <time>2023-05-18T00:20:20Z</time>
      </trkpt>
      <trkpt lat="50.50207" lon="3.59036">
        <ele>40</ele>
        <time>2023-05-18T00:20:40Z</time>
      </trkpt>
      <trkpt lat="50.50203" lon="3.58949">
        <ele>41</ele>
        <time>2023-05-18T00:20:53Z</time>
      </trkpt>
      <trkpt lat="50.50202" lon="3.5891">
        <ele>42</ele>
        <time>2023-05-18T00:20:59Z</time>
      </trkpt>
      <trkpt lat="50.50209" lon="3.58892">
        <ele>42</ele>
        <time>2023-05-18T00:21:02Z</time>
      </trkpt>
      <trkpt lat="50.50217" lon="3.58882">
        <ele>42</ele>
        <time>2023-05-18T00:21:04Z</time>
      </trkpt>
      <trkpt lat="50.50224" lon="3.5888">
        <ele>42</ele>
        <time>2023-05-18T00:21:06Z</time>
      </trkpt>
      <trkpt lat="50.50259" lon="3.5888">
        <ele>43</ele>
        <time>2023-05-18T00:21:14Z</time>
      </trkpt>
    </trkseg>
  </trk>
</gpx>